Terminal Aerodrome Forecast
Issued by NWS

Home | Current Version | Previous Version | Text Only | Print | Product List | Glossary On
Versions: 1 2 3 4 5 6 7 8 9 10 11 12 13 14 15
268
FTUS41 KCAR 252336
TAFFVE
TAF
KFVE 252336Z 2600/2624 16006KT 5SM -RA OVC020
     FM260100 16008KT 3SM -RA OVC003
     FM260400 15009KT 1/2SM -RA FG OVC001 WS020/17040KT
     FM260800 15011KT 1/2SM -RA FG OVC001 WS020/14045KT
     FM261700 15007KT 3SM -RA OVC004=

USA.gov is the U.S. government's official web portal to all federal, state and local government web resources and services.